sensor_id;sensor_type;location;lat;lon;timestamp;temperature;humidity
7028;DHT22;3555;53.248;10.336;2023-03-02T00:01:28;2.30;99.90
7028;DHT22;3555;53.248;10.336;2023-03-02T00:03:57;2.20;99.90
7028;DHT22;3555;53.248;10.336;2023-03-02T00:06:27;2.00;99.90
7028;DHT22;3555;53.248;10.336;2023-03-02T00:08:55;2.00;99.90
7028;DHT22;3555;53.248;10.336;2023-03-02T00:11:26;1.90;99.90
7028;DHT22;3555;53.248;10.336;2023-03-02T00:13:54;1.90;99.90
7028;DHT22;3555;53.248;10.336;2023-03-02T00:16:20;2.40;99.90
7028;DHT22;3555;53.248;10.336;2023-03-02T00:18:47;2.20;99.90
7028;DHT22;3555;53.248;10.336;2023-03-02T00:21:14;2.30;99.90
7028;DHT22;3555;53.248;10.336;2023-03-02T00:23:41;2.50;99.90
7028;DHT22;3555;53.248;10.336;2023-03-02T00:26:09;2.70;99.90
7028;DHT22;3555;53.248;10.336;2023-03-02T00:28:37;2.70;99.90
7028;DHT22;3555;53.248;10.336;2023-03-02T00:31:05;3.20;99.90
7028;DHT22;3555;53.248;10.336;2023-03-02T00:33:32;3.00;99.90
7028;DHT22;3555;53.248;10.336;2023-03-02T00:36:00;3.00;99.90
7028;DHT22;3555;53.248;10.336;2023-03-02T00:38:26;2.90;99.90
7028;DHT22;3555;53.248;10.336;2023-03-02T00:40:53;3.00;99.90
7028;DHT22;3555;53.248;10.336;2023-03-02T00:43:21;3.00;50.10
7028;DHT22;3555;53.248;10.336;2023-03-02T00:45:54;2.90;50.20
7028;DHT22;3555;53.248;10.336;2023-03-02T00:48:21;2.80;47.90
7028;DHT22;3555;53.248;10.336;2023-03-02T00:50:47;2.80;59.30
7028;DHT22;3555;53.248;10.336;2023-03-02T00:53:14;2.90;29.40
7028;DHT22;3555;53.248;10.336;2023-03-02T00:55:51;2.80;1.00
7028;DHT22;3555;53.248;10.336;2023-03-02T00:58:18;2.80;1.00
7028;DHT22;3555;53.248;10.336;2023-03-02T01:00:45;3.10;1.00
7028;DHT22;3555;53.248;10.336;2023-03-02T01:03:14;2.70;1.00
7028;DHT22;3555;53.248;10.336;2023-03-02T01:05:41;2.40;1.00
7028;DHT22;3555;53.248;10.336;2023-03-02T01:08:08;2.40;99.90
7028;DHT22;3555;53.248;10.336;2023-03-02T01:10:35;2.40;99.90
7028;DHT22;3555;53.248;10.336;2023-03-02T01:13:02;2.40;99.90
7028;DHT22;3555;53.248;10.336;2023-03-02T01:15:29;2.20;99.90
7028;DHT22;3555;53.248;10.336;2023-03-02T01:17:55;2.10;99.90
7028;DHT22;3555;53.248;10.336;2023-03-02T01:20:24;2.00;99.90
7028;DHT22;3555;53.248;10.336;2023-03-02T01:22:51;1.70;99.90
7028;DHT22;3555;53.248;10.336;2023-03-02T01:25:18;1.70;99.90
7028;DHT22;3555;53.248;10.336;2023-03-02T01:27:45;1.80;99.90
7028;DHT22;3555;53.248;10.336;2023-03-02T01:30:12;1.80;99.90
7028;DHT22;3555;53.248;10.336;2023-03-02T01:32:39;1.60;99.90
7028;DHT22;3555;53.248;10.336;2023-03-02T01:35:07;1.70;99.90
7028;DHT22;3555;53.248;10.336;2023-03-02T01:37:35;1.90;99.90
7028;DHT22;3555;53.248;10.336;2023-03-02T01:40:02;2.00;99.90
7028;DHT22;3555;53.248;10.336;2023-03-02T01:42:34;2.10;99.90
7028;DHT22;3555;53.248;10.336;2023-03-02T01:45:03;2.30;99.90
7028;DHT22;3555;53.248;10.336;2023-03-02T01:47:33;2.50;99.90
7028;DHT22;3555;53.248;10.336;2023-03-02T01:50:04;2.50;99.90
7028;DHT22;3555;53.248;10.336;2023-03-02T01:52:32;2.20;99.90
7028;DHT22;3555;53.248;10.336;2023-03-02T01:55:07;2.00;99.90
7028;DHT22;3555;53.248;10.336;2023-03-02T01:57:37;2.00;99.90
7028;DHT22;3555;53.248;10.336;2023-03-02T02:00:10;2.10;99.90
7028;DHT22;3555;53.248;10.336;2023-03-02T02:02:38;2.20;99.90
7028;DHT22;3555;53.248;10.336;2023-03-02T02:05:07;2.30;99.90
7028;DHT22;3555;53.248;10.336;2023-03-02T02:07:35;2.50;99.90
7028;DHT22;3555;53.248;10.336;2023-03-02T02:10:05;2.60;99.90
7028;DHT22;3555;53.248;10.336;2023-03-02T02:12:32;2.60;99.90
7028;DHT22;3555;53.248;10.336;2023-03-02T02:15:00;2.50;99.90
7028;DHT22;3555;53.248;10.336;2023-03-02T02:17:27;2.20;99.90
7028;DHT22;3555;53.248;10.336;2023-03-02T02:20:03;2.10;99.90
7028;DHT22;3555;53.248;10.336;2023-03-02T02:22:43;2.00;99.90
7028;DHT22;3555;53.248;10.336;2023-03-02T02:25:21;1.90;99.90
7028;DHT22;3555;53.248;10.336;2023-03-02T02:27:51;1.60;99.90
7028;DHT22;3555;53.248;10.336;2023-03-02T02:30:20;1.50;99.90
7028;DHT22;3555;53.248;10.336;2023-03-02T02:32:48;1.40;99.90
7028;DHT22;3555;53.248;10.336;2023-03-02T02:35:19;1.50;99.90
7028;DHT22;3555;53.248;10.336;2023-03-02T02:37:50;1.50;99.90
7028;DHT22;3555;53.248;10.336;2023-03-02T02:40:20;1.50;99.90
7028;DHT22;3555;53.248;10.336;2023-03-02T02:42:51;1.50;99.90
7028;DHT22;3555;53.248;10.336;2023-03-02T02:45:21;1.40;99.90
7028;DHT22;3555;53.248;10.336;2023-03-02T02:47:50;1.50;99.90
7028;DHT22;3555;53.248;10.336;2023-03-02T02:50:20;1.60;99.90
7028;DHT22;3555;53.248;10.336;2023-03-02T02:52:52;1.60;99.90
7028;DHT22;3555;53.248;10.336;2023-03-02T02:55:22;1.30;99.90
7028;DHT22;3555;53.248;10.336;2023-03-02T02:57:54;1.20;99.90
7028;DHT22;3555;53.248;10.336;2023-03-02T03:00:22;1.10;99.90
7028;DHT22;3555;53.248;10.336;2023-03-02T03:02:54;1.00;99.90
7028;DHT22;3555;53.248;10.336;2023-03-02T03:05:24;0.90;99.90
7028;DHT22;3555;53.248;10.336;2023-03-02T03:07:51;0.90;99.90
7028;DHT22;3555;53.248;10.336;2023-03-02T03:10:22;1.00;99.90
7028;DHT22;3555;53.248;10.336;2023-03-02T03:12:51;0.90;99.90
7028;DHT22;3555;53.248;10.336;2023-03-02T03:15:18;1.60;99.90
7028;DHT22;3555;53.248;10.336;2023-03-02T03:17:47;1.40;99.90
7028;DHT22;3555;53.248;10.336;2023-03-02T03:20:15;1.60;99.90
7028;DHT22;3555;53.248;10.336;2023-03-02T03:22:43;1.80;99.90
7028;DHT22;3555;53.248;10.336;2023-03-02T03:25:09;1.90;99.90
7028;DHT22;3555;53.248;10.336;2023-03-02T03:27:40;2.00;99.90
7028;DHT22;3555;53.248;10.336;2023-03-02T03:30:11;2.20;99.90
7028;DHT22;3555;53.248;10.336;2023-03-02T03:32:39;2.30;99.90
7028;DHT22;3555;53.248;10.336;2023-03-02T03:35:07;2.40;99.90
7028;DHT22;3555;53.248;10.336;2023-03-02T03:37:37;2.30;99.90
7028;DHT22;3555;53.248;10.336;2023-03-02T03:40:05;2.40;28.90
7028;DHT22;3555;53.248;10.336;2023-03-02T03:42:34;2.50;1.00
7028;DHT22;3555;53.248;10.336;2023-03-02T03:45:01;2.60;1.00
7028;DHT22;3555;53.248;10.336;2023-03-02T03:47:29;2.70;99.90
7028;DHT22;3555;53.248;10.336;2023-03-02T03:49:56;2.70;99.90
7028;DHT22;3555;53.248;10.336;2023-03-02T03:52:23;2.70;99.90
7028;DHT22;3555;53.248;10.336;2023-03-02T03:54:55;2.40;1.00
7028;DHT22;3555;53.248;10.336;2023-03-02T03:57:22;2.30;1.00
7028;DHT22;3555;53.248;10.336;2023-03-02T03:59:49;2.30;99.90
7028;DHT22;3555;53.248;10.336;2023-03-02T04:02:16;2.30;99.90
7028;DHT22;3555;53.248;10.336;2023-03-02T04:04:44;2.10;1.00
7028;DHT22;3555;53.248;10.336;2023-03-02T04:07:12;1.90;1.00
7028;DHT22;3555;53.248;10.336;2023-03-02T04:09:39;1.90;99.90
7028;DHT22;3555;53.248;10.336;2023-03-02T04:12:06;1.90;1.00
7028;DHT22;3555;53.248;10.336;2023-03-02T04:14:33;1.60;1.00
7028;DHT22;3555;53.248;10.336;2023-03-02T04:17:00;1.70;1.00
7028;DHT22;3555;53.248;10.336;2023-03-02T04:19:30;1.70;1.00
7028;DHT22;3555;53.248;10.336;2023-03-02T04:21:58;1.60;1.00
7028;DHT22;3555;53.248;10.336;2023-03-02T04:24:28;1.70;1.00
7028;DHT22;3555;53.248;10.336;2023-03-02T04:26:55;1.80;1.00
7028;DHT22;3555;53.248;10.336;2023-03-02T04:29:22;2.10;1.00
7028;DHT22;3555;53.248;10.336;2023-03-02T04:31:49;2.10;1.00
7028;DHT22;3555;53.248;10.336;2023-03-02T04:34:15;2.20;1.00
7028;DHT22;3555;53.248;10.336;2023-03-02T04:36:42;2.20;99.90
7028;DHT22;3555;53.248;10.336;2023-03-02T04:39:12;2.30;1.00
7028;DHT22;3555;53.248;10.336;2023-03-02T04:41:39;2.30;99.90
7028;DHT22;3555;53.248;10.336;2023-03-02T04:44:06;2.00;99.90
7028;DHT22;3555;53.248;10.336;2023-03-02T04:46:33;1.80;69.10
7028;DHT22;3555;53.248;10.336;2023-03-02T04:49:00;1.70;1.00
7028;DHT22;3555;53.248;10.336;2023-03-02T04:51:29;1.40;1.00
7028;DHT22;3555;53.248;10.336;2023-03-02T04:53:58;1.30;1.00
7028;DHT22;3555;53.248;10.336;2023-03-02T04:56:27;1.00;1.00
7028;DHT22;3555;53.248;10.336;2023-03-02T04:58:54;1.10;99.90
7028;DHT22;3555;53.248;10.336;2023-03-02T05:01:21;1.20;99.90
7028;DHT22;3555;53.248;10.336;2023-03-02T05:03:49;1.30;99.90
7028;DHT22;3555;53.248;10.336;2023-03-02T05:06:16;1.20;99.90
7028;DHT22;3555;53.248;10.336;2023-03-02T05:08:43;1.30;99.90
7028;DHT22;3555;53.248;10.336;2023-03-02T05:11:11;1.50;99.90
7028;DHT22;3555;53.248;10.336;2023-03-02T05:13:48;1.40;99.90
7028;DHT22;3555;53.248;10.336;2023-03-02T05:16:15;1.50;99.90
7028;DHT22;3555;53.248;10.336;2023-03-02T05:18:42;1.60;99.90
7028;DHT22;3555;53.248;10.336;2023-03-02T05:21:09;1.60;99.90
7028;DHT22;3555;53.248;10.336;2023-03-02T05:23:36;1.70;99.90
7028;DHT22;3555;53.248;10.336;2023-03-02T05:26:03;1.50;64.00
7028;DHT22;3555;53.248;10.336;2023-03-02T05:28:30;1.50;99.90
7028;DHT22;3555;53.248;10.336;2023-03-02T05:30:59;1.20;99.90
7028;DHT22;3555;53.248;10.336;2023-03-02T05:33:27;1.30;99.90
7028;DHT22;3555;53.248;10.336;2023-03-02T05:35:54;1.10;99.90
7028;DHT22;3555;53.248;10.336;2023-03-02T05:38:21;1.30;99.90
7028;DHT22;3555;53.248;10.336;2023-03-02T05:40:48;1.30;99.90
7028;DHT22;3555;53.248;10.336;2023-03-02T05:43:19;1.40;99.90
7028;DHT22;3555;53.248;10.336;2023-03-02T05:45:47;1.30;99.90
7028;DHT22;3555;53.248;10.336;2023-03-02T05:48:15;1.20;99.90
7028;DHT22;3555;53.248;10.336;2023-03-02T05:50:42;1.20;99.90
7028;DHT22;3555;53.248;10.336;2023-03-02T05:53:09;1.40;99.90
7028;DHT22;3555;53.248;10.336;2023-03-02T05:55:36;1.50;99.90
7028;DHT22;3555;53.248;10.336;2023-03-02T05:58:03;1.20;5.40
7028;DHT22;3555;53.248;10.336;2023-03-02T06:00:30;1.40;99.90
7028;DHT22;3555;53.248;10.336;2023-03-02T06:02:57;1.30;1.00
7028;DHT22;3555;53.248;10.336;2023-03-02T06:05:25;1.20;4.60
7028;DHT22;3555;53.248;10.336;2023-03-02T06:07:52;1.30;95.40
7028;DHT22;3555;53.248;10.336;2023-03-02T06:10:19;1.50;92.20
7028;DHT22;3555;53.248;10.336;2023-03-02T06:12:46;1.20;48.70
7028;DHT22;3555;53.248;10.336;2023-03-02T06:15:13;1.10;99.90
7028;DHT22;3555;53.248;10.336;2023-03-02T06:17:40;1.20;99.90
7028;DHT22;3555;53.248;10.336;2023-03-02T06:20:08;1.10;99.90
7028;DHT22;3555;53.248;10.336;2023-03-02T06:22:37;1.00;99.90
7028;DHT22;3555;53.248;10.336;2023-03-02T06:25:06;1.40;99.90
7028;DHT22;3555;53.248;10.336;2023-03-02T06:27:33;1.00;99.90
7028;DHT22;3555;53.248;10.336;2023-03-02T06:30:00;1.10;99.90
7028;DHT22;3555;53.248;10.336;2023-03-02T06:32:27;0.80;99.90
7028;DHT22;3555;53.248;10.336;2023-03-02T06:34:58;0.90;99.90
7028;DHT22;3555;53.248;10.336;2023-03-02T06:37:25;0.70;99.90
7028;DHT22;3555;53.248;10.336;2023-03-02T06:39:54;0.90;99.90
7028;DHT22;3555;53.248;10.336;2023-03-02T06:42:21;1.00;99.90
7028;DHT22;3555;53.248;10.336;2023-03-02T06:44:48;1.10;99.90
7028;DHT22;3555;53.248;10.336;2023-03-02T06:47:16;1.20;99.90
7028;DHT22;3555;53.248;10.336;2023-03-02T06:49:43;1.40;99.90
7028;DHT22;3555;53.248;10.336;2023-03-02T06:52:10;1.40;99.90
7028;DHT22;3555;53.248;10.336;2023-03-02T06:54:38;1.40;99.90
7028;DHT22;3555;53.248;10.336;2023-03-02T06:57:06;1.40;99.90
7028;DHT22;3555;53.248;10.336;2023-03-02T06:59:33;1.10;19.80
7028;DHT22;3555;53.248;10.336;2023-03-02T07:02:01;1.10;99.90
7028;DHT22;3555;53.248;10.336;2023-03-02T07:04:27;0.90;99.90
7028;DHT22;3555;53.248;10.336;2023-03-02T07:06:54;0.80;99.90
7028;DHT22;3555;53.248;10.336;2023-03-02T07:09:21;0.70;99.90
7028;DHT22;3555;53.248;10.336;2023-03-02T07:11:48;0.70;99.90
7028;DHT22;3555;53.248;10.336;2023-03-02T07:14:17;0.60;99.90
7028;DHT22;3555;53.248;10.336;2023-03-02T07:16:43;0.70;99.90
7028;DHT22;3555;53.248;10.336;2023-03-02T07:19:11;0.80;99.90
7028;DHT22;3555;53.248;10.336;2023-03-02T07:21:38;1.00;99.90
7028;DHT22;3555;53.248;10.336;2023-03-02T07:24:05;1.10;99.90
7028;DHT22;3555;53.248;10.336;2023-03-02T07:26:32;1.20;99.90
7028;DHT22;3555;53.248;10.336;2023-03-02T07:28:59;1.20;99.90
7028;DHT22;3555;53.248;10.336;2023-03-02T07:31:28;1.10;99.90
7028;DHT22;3555;53.248;10.336;2023-03-02T07:33:54;0.90;99.90
7028;DHT22;3555;53.248;10.336;2023-03-02T07:36:21;0.90;99.90
7028;DHT22;3555;53.248;10.336;2023-03-02T07:38:48;1.00;99.90
7028;DHT22;3555;53.248;10.336;2023-03-02T07:41:15;1.10;99.90
7028;DHT22;3555;53.248;10.336;2023-03-02T07:43:42;1.20;99.90
7028;DHT22;3555;53.248;10.336;2023-03-02T07:46:09;1.30;99.90
7028;DHT22;3555;53.248;10.336;2023-03-02T07:48:37;1.50;99.90
7028;DHT22;3555;53.248;10.336;2023-03-02T07:51:05;1.50;99.90
7028;DHT22;3555;53.248;10.336;2023-03-02T07:53:32;1.60;99.90
7028;DHT22;3555;53.248;10.336;2023-03-02T07:55:59;1.50;99.90
7028;DHT22;3555;53.248;10.336;2023-03-02T07:58:26;1.50;99.90
7028;DHT22;3555;53.248;10.336;2023-03-02T08:00:53;1.90;99.90
7028;DHT22;3555;53.248;10.336;2023-03-02T08:03:20;1.30;99.90
7028;DHT22;3555;53.248;10.336;2023-03-02T08:05:48;1.30;99.90
7028;DHT22;3555;53.248;10.336;2023-03-02T08:08:15;1.30;99.90
7028;DHT22;3555;53.248;10.336;2023-03-02T08:10:42;1.10;99.90
7028;DHT22;3555;53.248;10.336;2023-03-02T08:13:09;2.20;99.90
7028;DHT22;3555;53.248;10.336;2023-03-02T08:15:36;1.30;99.90
7028;DHT22;3555;53.248;10.336;2023-03-02T08:18:03;1.20;99.90
7028;DHT22;3555;53.248;10.336;2023-03-02T08:20:30;1.40;99.90
7028;DHT22;3555;53.248;10.336;2023-03-02T08:22:58;1.00;99.90
7028;DHT22;3555;53.248;10.336;2023-03-02T08:25:26;1.10;99.90
7028;DHT22;3555;53.248;10.336;2023-03-02T08:27:53;1.20;99.90
7028;DHT22;3555;53.248;10.336;2023-03-02T08:30:20;1.90;99.90
7028;DHT22;3555;53.248;10.336;2023-03-02T08:32:47;1.30;99.90
7028;DHT22;3555;53.248;10.336;2023-03-02T08:35:14;1.20;99.90
7028;DHT22;3555;53.248;10.336;2023-03-02T08:37:41;1.20;99.90
7028;DHT22;3555;53.248;10.336;2023-03-02T08:40:11;1.20;99.90
7028;DHT22;3555;53.248;10.336;2023-03-02T08:42:38;1.00;99.90
7028;DHT22;3555;53.248;10.336;2023-03-02T08:45:06;1.20;99.90
7028;DHT22;3555;53.248;10.336;2023-03-02T08:47:33;1.20;99.90
7028;DHT22;3555;53.248;10.336;2023-03-02T08:50:00;1.30;99.90
7028;DHT22;3555;53.248;10.336;2023-03-02T08:52:26;1.40;99.90
7028;DHT22;3555;53.248;10.336;2023-03-02T08:54:53;1.40;99.90
7028;DHT22;3555;53.248;10.336;2023-03-02T08:57:22;1.60;99.90
7028;DHT22;3555;53.248;10.336;2023-03-02T08:59:49;1.70;99.90
7028;DHT22;3555;53.248;10.336;2023-03-02T09:02:17;1.90;99.90
7028;DHT22;3555;53.248;10.336;2023-03-02T09:04:43;2.00;99.90
7028;DHT22;3555;53.248;10.336;2023-03-02T09:07:10;2.10;99.90
7028;DHT22;3555;53.248;10.336;2023-03-02T09:09:38;2.10;99.90
7028;DHT22;3555;53.248;10.336;2023-03-02T09:12:05;2.20;99.90
7028;DHT22;3555;53.248;10.336;2023-03-02T09:14:34;2.20;99.90
7028;DHT22;3555;53.248;10.336;2023-03-02T09:17:01;2.10;99.90
7028;DHT22;3555;53.248;10.336;2023-03-02T09:19:28;2.30;99.90
7028;DHT22;3555;53.248;10.336;2023-03-02T09:21:55;2.30;99.90
7028;DHT22;3555;53.248;10.336;2023-03-02T09:24:22;2.30;78.30
7028;DHT22;3555;53.248;10.336;2023-03-02T09:26:49;2.20;30.00
7028;DHT22;3555;53.248;10.336;2023-03-02T09:29:15;2.00;1.00
7028;DHT22;3555;53.248;10.336;2023-03-02T09:31:44;2.10;99.90
7028;DHT22;3555;53.248;10.336;2023-03-02T09:34:10;2.00;99.90
7028;DHT22;3555;53.248;10.336;2023-03-02T09:36:37;2.00;99.90
7028;DHT22;3555;53.248;10.336;2023-03-02T09:39:04;2.10;99.90
7028;DHT22;3555;53.248;10.336;2023-03-02T09:47:51;2.30;99.90
7028;DHT22;3555;53.248;10.336;2023-03-02T09:50:28;2.30;99.90
7028;DHT22;3555;53.248;10.336;2023-03-02T09:55:52;2.20;42.30
7028;DHT22;3555;53.248;10.336;2023-03-02T09:58:20;2.10;99.90
7028;DHT22;3555;53.248;10.336;2023-03-02T10:00:50;1.90;13.60
7028;DHT22;3555;53.248;10.336;2023-03-02T10:03:20;2.10;99.90
7028;DHT22;3555;53.248;10.336;2023-03-02T10:05:49;2.20;99.90
7028;DHT22;3555;53.248;10.336;2023-03-02T10:08:18;2.00;99.90
7028;DHT22;3555;53.248;10.336;2023-03-02T10:10:52;1.90;99.90
7028;DHT22;3555;53.248;10.336;2023-03-02T10:13:23;2.00;99.90
7028;DHT22;3555;53.248;10.336;2023-03-02T10:15:59;2.10;99.90
7028;DHT22;3555;53.248;10.336;2023-03-02T10:18:33;2.30;99.90
7028;DHT22;3555;53.248;10.336;2023-03-02T10:21:05;2.30;99.90
7028;DHT22;3555;53.248;10.336;2023-03-02T10:23:43;2.30;99.90
7028;DHT22;3555;53.248;10.336;2023-03-02T10:26:20;2.40;99.90
7028;DHT22;3555;53.248;10.336;2023-03-02T10:28:49;2.30;91.80
7028;DHT22;3555;53.248;10.336;2023-03-02T10:31:25;2.60;99.90
7028;DHT22;3555;53.248;10.336;2023-03-02T10:33:55;2.70;99.90
7028;DHT22;3555;53.248;10.336;2023-03-02T10:36:24;2.80;73.10
7028;DHT22;3555;53.248;10.336;2023-03-02T10:38:52;3.00;44.60
7028;DHT22;3555;53.248;10.336;2023-03-02T10:41:24;3.00;1.00
7028;DHT22;3555;53.248;10.336;2023-03-02T10:43:56;3.10;1.00
7028;DHT22;3555;53.248;10.336;2023-03-02T10:46:24;3.20;99.90
7028;DHT22;3555;53.248;10.336;2023-03-02T10:48:55;3.30;1.00
7028;DHT22;3555;53.248;10.336;2023-03-02T10:51:25;3.40;1.00
7028;DHT22;3555;53.248;10.336;2023-03-02T10:54:05;3.40;1.00
7028;DHT22;3555;53.248;10.336;2023-03-02T10:56:33;3.50;1.00
7028;DHT22;3555;53.248;10.336;2023-03-02T10:59:00;3.50;1.00
7028;DHT22;3555;53.248;10.336;2023-03-02T11:01:30;3.70;1.00
7028;DHT22;3555;53.248;10.336;2023-03-02T11:03:59;3.80;1.00
7028;DHT22;3555;53.248;10.336;2023-03-02T11:06:28;3.80;99.90
7028;DHT22;3555;53.248;10.336;2023-03-02T11:08:59;3.70;1.00
7028;DHT22;3555;53.248;10.336;2023-03-02T11:11:26;3.70;99.90
7028;DHT22;3555;53.248;10.336;2023-03-02T11:13:53;3.80;1.00
7028;DHT22;3555;53.248;10.336;2023-03-02T11:16:24;3.80;91.80
7028;DHT22;3555;53.248;10.336;2023-03-02T11:18:56;3.90;1.00
7028;DHT22;3555;53.248;10.336;2023-03-02T11:21:30;3.90;1.00
7028;DHT22;3555;53.248;10.336;2023-03-02T11:24:05;3.90;99.90
7028;DHT22;3555;53.248;10.336;2023-03-02T11:26:36;4.00;99.90
7028;DHT22;3555;53.248;10.336;2023-03-02T11:29:08;3.90;99.90
7028;DHT22;3555;53.248;10.336;2023-03-02T11:31:42;4.00;1.00
7028;DHT22;3555;53.248;10.336;2023-03-02T11:34:28;4.00;99.90
7028;DHT22;3555;53.248;10.336;2023-03-02T11:37:04;3.90;99.90
7028;DHT22;3555;53.248;10.336;2023-03-02T11:39:47;4.10;99.90
7028;DHT22;3555;53.248;10.336;2023-03-02T11:42:20;3.80;99.90
7028;DHT22;3555;53.248;10.336;2023-03-02T11:44:47;3.60;1.00
7028;DHT22;3555;53.248;10.336;2023-03-02T11:47:15;3.70;1.00
7028;DHT22;3555;53.248;10.336;2023-03-02T11:49:47;3.50;1.00
7028;DHT22;3555;53.248;10.336;2023-03-02T11:52:19;3.10;1.00
7028;DHT22;3555;53.248;10.336;2023-03-02T11:54:51;3.40;99.90
7028;DHT22;3555;53.248;10.336;2023-03-02T11:57:24;3.10;1.00
7028;DHT22;3555;53.248;10.336;2023-03-02T11:59:53;2.80;1.00
7028;DHT22;3555;53.248;10.336;2023-03-02T12:02:21;2.90;1.00
7028;DHT22;3555;53.248;10.336;2023-03-02T12:04:48;2.70;1.00
7028;DHT22;3555;53.248;10.336;2023-03-02T12:07:19;2.60;99.90
7028;DHT22;3555;53.248;10.336;2023-03-02T12:09:57;2.80;99.90
7028;DHT22;3555;53.248;10.336;2023-03-02T12:12:40;2.80;42.60
7028;DHT22;3555;53.248;10.336;2023-03-02T12:15:27;2.90;50.80
7028;DHT22;3555;53.248;10.336;2023-03-02T12:17:55;2.60;99.90
7028;DHT22;3555;53.248;10.336;2023-03-02T12:20:25;2.70;99.90
7028;DHT22;3555;53.248;10.336;2023-03-02T12:23:05;2.70;99.90
7028;DHT22;3555;53.248;10.336;2023-03-02T12:25:42;2.70;99.90
7028;DHT22;3555;53.248;10.336;2023-03-02T12:28:27;2.80;99.90
7028;DHT22;3555;53.248;10.336;2023-03-02T12:31:00;2.70;74.30
7028;DHT22;3555;53.248;10.336;2023-03-02T12:33:27;2.60;99.90
7028;DHT22;3555;53.248;10.336;2023-03-02T12:36:03;2.70;99.90
7028;DHT22;3555;53.248;10.336;2023-03-02T12:38:33;2.90;99.90
7028;DHT22;3555;53.248;10.336;2023-03-02T12:41:28;3.10;99.90
7028;DHT22;3555;53.248;10.336;2023-03-02T12:44:15;3.10;99.90
7028;DHT22;3555;53.248;10.336;2023-03-02T12:46:48;3.00;21.90
7028;DHT22;3555;53.248;10.336;2023-03-02T12:52:19;3.30;99.90
7028;DHT22;3555;53.248;10.336;2023-03-02T12:55:01;3.40;1.00
7028;DHT22;3555;53.248;10.336;2023-03-02T12:57:29;3.50;1.00
7028;DHT22;3555;53.248;10.336;2023-03-02T12:59:58;3.30;1.00
7028;DHT22;3555;53.248;10.336;2023-03-02T13:02:27;3.40;1.00
7028;DHT22;3555;53.248;10.336;2023-03-02T13:04:56;3.30;1.00
7028;DHT22;3555;53.248;10.336;2023-03-02T13:07:25;3.20;1.00
7028;DHT22;3555;53.248;10.336;2023-03-02T13:09:56;3.10;82.10
7028;DHT22;3555;53.248;10.336;2023-03-02T13:12:27;3.00;99.90
7028;DHT22;3555;53.248;10.336;2023-03-02T13:14:56;3.00;99.90
7028;DHT22;3555;53.248;10.336;2023-03-02T13:17:26;3.20;99.90
7028;DHT22;3555;53.248;10.336;2023-03-02T13:19:55;3.40;99.90
7028;DHT22;3555;53.248;10.336;2023-03-02T13:22:22;3.60;99.90
7028;DHT22;3555;53.248;10.336;2023-03-02T13:24:56;3.80;1.00
7028;DHT22;3555;53.248;10.336;2023-03-02T13:27:25;4.00;1.00
7028;DHT22;3555;53.248;10.336;2023-03-02T13:29:53;4.10;1.00
7028;DHT22;3555;53.248;10.336;2023-03-02T13:32:23;4.10;1.00
7028;DHT22;3555;53.248;10.336;2023-03-02T13:34:52;4.10;1.00
7028;DHT22;3555;53.248;10.336;2023-03-02T13:37:31;4.50;1.00
7028;DHT22;3555;53.248;10.336;2023-03-02T13:40:03;4.40;1.00
7028;DHT22;3555;53.248;10.336;2023-03-02T13:42:35;4.40;99.90
7028;DHT22;3555;53.248;10.336;2023-03-02T13:45:21;4.50;1.00
7028;DHT22;3555;53.248;10.336;2023-03-02T13:47:48;4.60;1.00
7028;DHT22;3555;53.248;10.336;2023-03-02T13:50:18;4.40;1.00
7028;DHT22;3555;53.248;10.336;2023-03-02T13:52:45;4.60;99.90
7028;DHT22;3555;53.248;10.336;2023-03-02T13:55:14;4.50;1.00
7028;DHT22;3555;53.248;10.336;2023-03-02T13:57:41;4.60;1.00
7028;DHT22;3555;53.248;10.336;2023-03-02T14:00:13;4.70;99.90
7028;DHT22;3555;53.248;10.336;2023-03-02T14:02:40;4.60;10.70
7028;DHT22;3555;53.248;10.336;2023-03-02T14:05:18;4.40;99.90
7028;DHT22;3555;53.248;10.336;2023-03-02T14:07:45;4.30;1.00
7028;DHT22;3555;53.248;10.336;2023-03-02T14:10:15;4.40;95.20
7028;DHT22;3555;53.248;10.336;2023-03-02T14:12:47;4.50;1.00
7028;DHT22;3555;53.248;10.336;2023-03-02T14:15:15;4.60;1.00
7028;DHT22;3555;53.248;10.336;2023-03-02T14:17:43;4.60;1.00
7028;DHT22;3555;53.248;10.336;2023-03-02T14:20:12;4.50;99.90
7028;DHT22;3555;53.248;10.336;2023-03-02T14:22:40;4.50;1.00
7028;DHT22;3555;53.248;10.336;2023-03-02T14:25:07;4.50;99.90
7028;DHT22;3555;53.248;10.336;2023-03-02T14:27:36;4.60;99.90
7028;DHT22;3555;53.248;10.336;2023-03-02T14:30:11;4.40;49.20
7028;DHT22;3555;53.248;10.336;2023-03-02T14:32:38;4.30;99.90
7028;DHT22;3555;53.248;10.336;2023-03-02T14:35:07;4.20;1.00
7028;DHT22;3555;53.248;10.336;2023-03-02T14:37:36;4.00;99.90
7028;DHT22;3555;53.248;10.336;2023-03-02T14:40:07;3.90;1.00
7028;DHT22;3555;53.248;10.336;2023-03-02T14:42:41;3.90;7.20
7028;DHT22;3555;53.248;10.336;2023-03-02T14:45:09;3.80;1.00
7028;DHT22;3555;53.248;10.336;2023-03-02T14:47:36;3.70;1.00
7028;DHT22;3555;53.248;10.336;2023-03-02T14:50:03;3.60;1.00
7028;DHT22;3555;53.248;10.336;2023-03-02T14:52:34;3.60;99.90
7028;DHT22;3555;53.248;10.336;2023-03-02T14:55:04;3.50;99.90
7028;DHT22;3555;53.248;10.336;2023-03-02T14:57:35;3.40;1.00
7028;DHT22;3555;53.248;10.336;2023-03-02T15:00:05;3.40;1.00
7028;DHT22;3555;53.248;10.336;2023-03-02T15:02:33;3.50;1.00
7028;DHT22;3555;53.248;10.336;2023-03-02T15:04:59;3.60;1.00
7028;DHT22;3555;53.248;10.336;2023-03-02T15:07:27;3.60;1.00
7028;DHT22;3555;53.248;10.336;2023-03-02T15:09:54;3.70;1.00
7028;DHT22;3555;53.248;10.336;2023-03-02T15:12:21;3.80;99.90
7028;DHT22;3555;53.248;10.336;2023-03-02T15:14:48;3.70;5.30
7028;DHT22;3555;53.248;10.336;2023-03-02T15:17:17;3.60;1.00
7028;DHT22;3555;53.248;10.336;2023-03-02T15:19:43;3.50;1.00
7028;DHT22;3555;53.248;10.336;2023-03-02T15:22:11;3.60;1.00
7028;DHT22;3555;53.248;10.336;2023-03-02T15:24:38;3.80;1.00
7028;DHT22;3555;53.248;10.336;2023-03-02T15:27:05;3.80;1.00
7028;DHT22;3555;53.248;10.336;2023-03-02T15:29:32;3.90;99.90
7028;DHT22;3555;53.248;10.336;2023-03-02T15:31:59;4.00;99.90
7028;DHT22;3555;53.248;10.336;2023-03-02T15:34:27;4.00;1.00
7028;DHT22;3555;53.248;10.336;2023-03-02T15:36:54;4.20;1.00
7028;DHT22;3555;53.248;10.336;2023-03-02T15:39:21;4.40;1.00
7028;DHT22;3555;53.248;10.336;2023-03-02T15:41:48;4.40;1.00
7028;DHT22;3555;53.248;10.336;2023-03-02T15:44:16;4.50;99.90
7028;DHT22;3555;53.248;10.336;2023-03-02T15:46:46;4.50;1.00
7028;DHT22;3555;53.248;10.336;2023-03-02T15:49:13;4.70;99.90
7028;DHT22;3555;53.248;10.336;2023-03-02T15:51:41;4.40;91.10
7028;DHT22;3555;53.248;10.336;2023-03-02T15:54:08;4.30;99.90
7028;DHT22;3555;53.248;10.336;2023-03-02T15:56:37;4.30;99.90
7028;DHT22;3555;53.248;10.336;2023-03-02T15:59:04;4.30;1.00
7028;DHT22;3555;53.248;10.336;2023-03-02T16:01:31;4.10;99.90
7028;DHT22;3555;53.248;10.336;2023-03-02T16:03:58;4.10;99.90
7028;DHT22;3555;53.248;10.336;2023-03-02T16:06:25;4.20;99.90
7028;DHT22;3555;53.248;10.336;2023-03-02T16:08:54;4.30;99.90
7028;DHT22;3555;53.248;10.336;2023-03-02T16:11:21;4.30;99.90
7028;DHT22;3555;53.248;10.336;2023-03-02T16:13:48;4.40;1.00
7028;DHT22;3555;53.248;10.336;2023-03-02T16:16:17;4.40;1.00
7028;DHT22;3555;53.248;10.336;2023-03-02T16:18:48;4.20;99.90
7028;DHT22;3555;53.248;10.336;2023-03-02T16:21:16;4.40;45.10
7028;DHT22;3555;53.248;10.336;2023-03-02T16:23:43;4.40;1.00
7028;DHT22;3555;53.248;10.336;2023-03-02T16:26:14;4.40;1.00
7028;DHT22;3555;53.248;10.336;2023-03-02T16:28:41;4.50;1.00
7028;DHT22;3555;53.248;10.336;2023-03-02T16:31:10;4.60;99.90